createdAt,value
2022-08-23T00:01:24.754Z,21.70
2022-08-23T00:03:53.326Z,21.70
2022-08-23T00:06:22.056Z,21.70
2022-08-23T00:08:49.910Z,21.80
2022-08-23T00:11:38.081Z,21.60
2022-08-23T00:14:19.569Z,21.40
2022-08-23T00:16:47.208Z,21.10
2022-08-23T00:19:16.682Z,21.20
2022-08-23T00:21:44.404Z,21.40
2022-08-23T00:24:12.750Z,21.40
2022-08-23T00:27:09.114Z,21.30
2022-08-23T00:29:37.986Z,21.30
2022-08-23T00:32:07.488Z,21.30
2022-08-23T00:34:35.384Z,21.20
2022-08-23T00:37:03.752Z,20.80
2022-08-23T00:39:31.091Z,20.50
2022-08-23T00:42:27.308Z,20.40
2022-08-23T00:45:14.353Z,20.50
2022-08-23T00:47:41.695Z,20.40
2022-08-23T00:50:24.906Z,20.70
2022-08-23T00:53:14.848Z,20.80
2022-08-23T00:55:44.892Z,20.90
2022-08-23T00:58:13.695Z,21.00
2022-08-23T01:00:40.553Z,20.90
2022-08-23T01:03:09.595Z,21.00
2022-08-23T01:06:07.183Z,21.00
2022-08-23T01:08:35.462Z,20.90
2022-08-23T01:11:23.075Z,20.70
2022-08-23T01:13:57.294Z,20.60
2022-08-23T01:17:05.559Z,20.60
2022-08-23T01:19:48.509Z,20.70
2022-08-23T01:22:27.963Z,20.80
2022-08-23T01:25:05.960Z,20.80
2022-08-23T01:27:37.477Z,20.80
2022-08-23T01:30:07.938Z,20.70
2022-08-23T01:32:43.161Z,20.50
2022-08-23T01:35:10.434Z,20.50
2022-08-23T01:37:38.068Z,20.60
2022-08-23T01:40:06.222Z,20.60
2022-08-23T01:42:33.068Z,20.80
2022-08-23T01:45:00.468Z,20.80
2022-08-23T01:47:28.143Z,20.80
2022-08-23T01:49:55.017Z,20.60
2022-08-23T01:52:22.126Z,20.50
2022-08-23T01:54:49.922Z,20.40
2022-08-23T01:57:17.502Z,20.40
2022-08-23T01:59:44.365Z,20.40
2022-08-23T02:02:11.376Z,20.50
2022-08-23T02:04:38.345Z,20.40
2022-08-23T02:07:05.265Z,20.40
2022-08-23T02:09:32.251Z,20.40
2022-08-23T02:11:59.324Z,20.40
2022-08-23T02:14:26.324Z,20.20
2022-08-23T02:17:03.519Z,19.90
2022-08-23T02:19:34.538Z,19.60
2022-08-23T02:22:01.462Z,19.60
2022-08-23T02:24:28.493Z,19.50
2022-08-23T02:26:59.365Z,19.40
2022-08-23T02:29:29.755Z,19.10
2022-08-23T02:31:58.665Z,19.10
2022-08-23T02:34:27.652Z,19.10
2022-08-23T02:36:55.380Z,19.10
2022-08-23T02:39:22.961Z,19.00
2022-08-23T02:41:50.132Z,18.80
2022-08-23T02:44:19.063Z,18.80
2022-08-23T02:46:47.420Z,18.90
2022-08-23T02:49:16.008Z,19.00
2022-08-23T02:51:43.128Z,19.00
2022-08-23T02:54:10.711Z,19.00
2022-08-23T02:56:37.889Z,19.20
2022-08-23T02:59:06.434Z,19.20
2022-08-23T03:01:39.203Z,19.00
2022-08-23T03:04:08.637Z,18.90
2022-08-23T03:06:36.359Z,19.00
2022-08-23T03:09:05.325Z,19.10
2022-08-23T03:11:32.397Z,19.20
2022-08-23T03:14:01.153Z,19.20
2022-08-23T03:16:28.595Z,19.20
2022-08-23T03:18:55.548Z,19.20
2022-08-23T03:21:22.720Z,19.00
2022-08-23T03:23:49.769Z,19.10
2022-08-23T03:26:16.985Z,19.10
2022-08-23T03:28:45.253Z,19.10
2022-08-23T03:31:14.007Z,19.20
2022-08-23T03:33:41.795Z,19.20
2022-08-23T03:36:12.413Z,19.10
2022-08-23T03:38:40.529Z,19.10
2022-08-23T03:41:08.855Z,19.20
2022-08-23T03:43:36.854Z,19.10
2022-08-23T03:46:04.714Z,19.00
2022-08-23T03:48:31.590Z,19.10
2022-08-23T03:50:59.433Z,19.10
2022-08-23T03:53:26.604Z,19.10
2022-08-23T03:55:55.901Z,18.90
2022-08-23T03:58:23.493Z,18.80
2022-08-23T04:00:50.476Z,18.80
2022-08-23T04:03:17.592Z,18.80
2022-08-23T04:05:44.792Z,18.70
2022-08-23T04:08:11.716Z,18.50
2022-08-23T04:10:39.328Z,18.40
2022-08-23T04:13:09.074Z,18.40
2022-08-23T04:15:37.191Z,18.40
2022-08-23T04:18:05.443Z,18.40
2022-08-23T04:20:34.493Z,18.30
2022-08-23T04:23:01.951Z,18.10
2022-08-23T04:25:33.521Z,18.10
2022-08-23T04:28:05.441Z,18.20
2022-08-23T04:30:33.356Z,18.10
2022-08-23T04:33:01.715Z,18.00
2022-08-23T04:35:29.803Z,17.90
2022-08-23T04:37:56.778Z,18.00
2022-08-23T04:40:42.437Z,18.00
2022-08-23T04:43:10.449Z,18.00
2022-08-23T04:45:41.101Z,18.10
2022-08-23T04:48:11.982Z,18.00
2022-08-23T04:50:40.110Z,18.20
2022-08-23T04:53:08.006Z,18.40
2022-08-23T04:55:36.352Z,18.50
2022-08-23T04:58:04.838Z,18.50
2022-08-23T05:00:31.612Z,18.40
2022-08-23T05:02:58.778Z,18.40
2022-08-23T05:05:27.613Z,18.40
2022-08-23T05:07:55.193Z,18.60
2022-08-23T05:10:22.416Z,18.70
2022-08-23T05:12:49.273Z,18.70
2022-08-23T05:15:16.463Z,18.80
2022-08-23T05:17:43.147Z,19.00
2022-08-23T05:20:11.310Z,19.10
2022-08-23T05:22:40.947Z,19.00
2022-08-23T05:25:09.066Z,19.10
2022-08-23T05:27:35.906Z,19.10
2022-08-23T05:30:04.394Z,19.30
2022-08-23T05:32:33.516Z,19.40
2022-08-23T05:35:00.968Z,19.40
2022-08-23T05:37:28.224Z,19.40
2022-08-23T05:39:54.953Z,19.50
2022-08-23T05:42:22.237Z,19.30
2022-08-23T05:44:48.973Z,19.40
2022-08-23T05:47:17.481Z,19.50
2022-08-23T05:49:51.314Z,19.50
2022-08-23T05:52:18.997Z,19.30
2022-08-23T05:54:45.668Z,19.30
2022-08-23T05:57:12.528Z,19.30
2022-08-23T05:59:41.702Z,19.20
2022-08-23T06:02:08.552Z,19.10
2022-08-23T06:04:36.034Z,19.10
2022-08-23T06:07:02.936Z,19.10
2022-08-23T06:09:30.621Z,19.10
2022-08-23T06:11:58.699Z,19.10
2022-08-23T06:14:25.529Z,19.20
2022-08-23T06:16:56.022Z,19.30
2022-08-23T06:19:24.631Z,19.40
2022-08-23T06:21:52.805Z,19.60
2022-08-23T06:24:20.432Z,19.60
2022-08-23T06:26:47.695Z,19.70
2022-08-23T06:29:17.039Z,19.80
2022-08-23T06:31:50.438Z,19.90
2022-08-23T06:34:22.386Z,20.00
2022-08-23T06:36:58.298Z,20.00
2022-08-23T06:39:27.474Z,20.10
2022-08-23T06:42:02.100Z,21.00
2022-08-23T06:44:29.838Z,22.80
2022-08-23T06:46:57.333Z,24.60
2022-08-23T06:49:25.770Z,26.10
2022-08-23T06:51:56.221Z,26.50
2022-08-23T06:54:27.085Z,27.40
2022-08-23T06:56:54.113Z,29.00
2022-08-23T06:59:21.901Z,29.70
2022-08-23T07:01:53.303Z,30.10
2022-08-23T07:04:24.423Z,31.10
2022-08-23T07:06:51.161Z,30.80
2022-08-23T07:09:18.706Z,30.80
2022-08-23T07:11:45.815Z,31.20
2022-08-23T07:14:16.413Z,31.30
2022-08-23T07:16:50.144Z,31.40
2022-08-23T07:19:19.374Z,31.50
2022-08-23T07:21:48.692Z,32.30
2022-08-23T07:24:18.089Z,32.90
2022-08-23T07:26:46.379Z,32.80
2022-08-23T07:29:13.988Z,32.80
2022-08-23T07:31:44.649Z,32.70
2022-08-23T07:34:11.834Z,32.00
2022-08-23T07:36:42.067Z,32.30
2022-08-23T07:39:09.850Z,33.80
2022-08-23T07:41:38.692Z,34.80
2022-08-23T07:44:08.656Z,35.80
2022-08-23T07:46:37.080Z,35.70
2022-08-23T07:49:04.971Z,35.40
2022-08-23T07:51:34.076Z,34.20
2022-08-23T07:54:07.312Z,33.60
2022-08-23T07:56:35.902Z,34.30
2022-08-23T07:59:03.350Z,36.30
2022-08-23T08:01:30.543Z,37.70
2022-08-23T08:04:00.115Z,38.40
2022-08-23T08:06:30.713Z,38.00
2022-08-23T08:08:58.812Z,38.60
2022-08-23T08:11:33.907Z,39.60
2022-08-23T08:14:05.122Z,39.90
2022-08-23T08:16:38.388Z,40.00
2022-08-23T08:19:08.381Z,37.00
2022-08-23T08:21:42.127Z,33.80
2022-08-23T08:24:11.324Z,33.80
2022-08-23T08:26:38.738Z,33.50
2022-08-23T08:29:05.722Z,33.40
2022-08-23T08:31:32.888Z,33.50
2022-08-23T08:33:59.637Z,33.10
2022-08-23T08:36:31.260Z,32.80
2022-08-23T08:39:00.676Z,33.40
2022-08-23T08:42:04.728Z,35.10
2022-08-23T08:44:40.333Z,37.80
2022-08-23T08:47:43.356Z,40.00
2022-08-23T08:50:24.291Z,38.50
2022-08-23T08:52:54.092Z,38.40
2022-08-23T08:55:36.597Z,39.80
2022-08-23T08:58:06.245Z,37.80
2022-08-23T09:00:38.817Z,36.90
2022-08-23T09:03:12.277Z,34.50
2022-08-23T09:05:46.718Z,34.80
2022-08-23T09:08:26.342Z,35.90
2022-08-23T09:11:13.900Z,35.50
2022-08-23T09:14:17.750Z,35.70
2022-08-23T09:16:55.285Z,36.30
2022-08-23T09:19:25.068Z,37.90
2022-08-23T09:22:10.339Z,39.00
2022-08-23T09:24:37.217Z,39.70
2022-08-23T09:27:04.189Z,41.20
2022-08-23T09:29:33.474Z,41.10
2022-08-23T09:32:06.539Z,40.30
2022-08-23T09:34:36.302Z,40.10
2022-08-23T09:37:15.065Z,39.50
2022-08-23T09:39:45.173Z,41.00
2022-08-23T09:42:31.344Z,42.50
2022-08-23T09:44:58.388Z,42.20
2022-08-23T09:47:44.435Z,42.20
2022-08-23T09:50:26.333Z,39.70
2022-08-23T09:53:14.644Z,35.60
2022-08-23T09:55:54.572Z,32.60
2022-08-23T09:58:33.610Z,31.00
2022-08-23T10:01:19.011Z,30.50
2022-08-23T10:03:46.328Z,29.70
2022-08-23T10:06:30.899Z,31.50
2022-08-23T10:09:04.323Z,31.80
2022-08-23T10:11:38.919Z,31.00
2022-08-23T10:14:07.017Z,30.60
2022-08-23T10:17:08.265Z,30.70
2022-08-23T10:19:54.492Z,30.40
2022-08-23T10:22:23.493Z,30.90
2022-08-23T10:25:00.478Z,30.80
2022-08-23T10:28:10.564Z,31.00
2022-08-23T10:30:45.855Z,29.90
2022-08-23T10:33:29.709Z,29.00
2022-08-23T10:36:06.300Z,28.70
2022-08-23T10:38:50.993Z,29.10
2022-08-23T10:41:41.950Z,31.40
2022-08-23T10:44:20.813Z,34.60
2022-08-23T10:46:52.924Z,36.10
2022-08-23T10:49:20.007Z,36.00
2022-08-23T10:51:51.768Z,37.80
2022-08-23T10:54:34.273Z,37.80
2022-08-23T10:57:03.599Z,34.80
2022-08-23T10:59:31.925Z,34.90
2022-08-23T11:02:10.331Z,35.10
2022-08-23T11:04:53.656Z,36.30
2022-08-23T11:07:41.299Z,36.50
2022-08-23T11:10:16.784Z,36.50
2022-08-23T11:12:54.537Z,35.90
2022-08-23T11:15:44.508Z,36.80
2022-08-23T11:18:36.733Z,36.80
2022-08-23T11:21:09.584Z,35.90
2022-08-23T11:23:58.261Z,34.90
2022-08-23T11:26:28.286Z,35.00
2022-08-23T11:29:18.201Z,34.80
2022-08-23T11:31:57.190Z,34.40
2022-08-23T11:34:48.019Z,33.40
2022-08-23T11:37:20.846Z,33.60
2022-08-23T11:39:57.530Z,35.10
2022-08-23T11:42:37.720Z,34.10
2022-08-23T11:45:23.086Z,34.40
2022-08-23T11:48:05.700Z,33.60
2022-08-23T11:50:43.636Z,35.10
2022-08-23T11:53:26.492Z,36.80
2022-08-23T11:56:08.449Z,38.40
2022-08-23T11:58:57.747Z,37.30
2022-08-23T12:01:40.429Z,38.10
2022-08-23T12:04:14.598Z,38.40
2022-08-23T12:06:43.223Z,38.10
2022-08-23T12:09:20.199Z,36.90
2022-08-23T12:11:55.851Z,38.10
2022-08-23T12:14:31.710Z,39.60
2022-08-23T12:17:00.705Z,39.60
2022-08-23T12:19:40.391Z,39.40
2022-08-23T12:22:16.804Z,39.10
2022-08-23T12:24:52.429Z,38.30
2022-08-23T12:27:37.012Z,38.20
2022-08-23T12:30:23.584Z,36.90
2022-08-23T12:33:09.192Z,35.00
2022-08-23T12:35:44.785Z,34.00
2022-08-23T12:38:33.640Z,34.40
2022-08-23T12:41:17.660Z,36.00
2022-08-23T12:44:03.212Z,35.80
2022-08-23T12:46:34.620Z,35.60
2022-08-23T12:49:01.436Z,36.80
2022-08-23T12:51:28.445Z,35.30
2022-08-23T12:53:55.551Z,34.60
2022-08-23T12:56:22.814Z,34.90
2022-08-23T12:59:03.315Z,34.60
2022-08-23T13:01:37.198Z,33.60
2022-08-23T13:04:11.406Z,33.60
2022-08-23T13:06:50.327Z,34.60
2022-08-23T13:09:38.789Z,34.90
2022-08-23T13:12:07.678Z,36.40
2022-08-23T13:14:36.803Z,38.40
2022-08-23T13:17:17.213Z,40.00
2022-08-23T13:19:45.353Z,39.70
2022-08-23T13:22:24.958Z,38.30
2022-08-23T13:25:29.233Z,37.10
2022-08-23T13:27:47.767Z,36.90
2022-08-23T13:30:14.388Z,36.30
2022-08-23T13:32:48.366Z,35.90
2022-08-23T13:35:38.361Z,36.30
2022-08-23T13:38:08.038Z,35.40
2022-08-23T13:40:59.741Z,33.90
2022-08-23T13:43:37.930Z,33.40
2022-08-23T13:46:18.073Z,32.70
2022-08-23T13:48:51.871Z,32.20
2022-08-23T13:51:41.352Z,31.50
2022-08-23T13:54:13.755Z,31.30
2022-08-23T13:56:48.955Z,31.10
2022-08-23T13:59:34.393Z,31.40
2022-08-23T14:02:12.235Z,31.60
2022-08-23T14:04:39.008Z,31.10
2022-08-23T14:07:06.598Z,30.60
2022-08-23T14:09:33.724Z,30.60
2022-08-23T14:12:04.814Z,31.10
2022-08-23T14:14:37.279Z,31.30
2022-08-23T14:17:04.656Z,31.40
2022-08-23T14:22:18.907Z,31.40
2022-08-23T14:24:45.735Z,31.50
2022-08-23T14:27:12.637Z,31.70
2022-08-23T14:29:39.357Z,31.70
2022-08-23T14:32:06.383Z,31.50
2022-08-23T14:34:33.220Z,31.30
2022-08-23T14:39:46.707Z,31.50
2022-08-23T14:42:17.807Z,31.60
2022-08-23T14:44:44.556Z,31.60
2022-08-23T14:47:11.297Z,31.20
2022-08-23T14:49:38.607Z,31.20
2022-08-23T14:52:05.593Z,30.80
2022-08-23T14:54:32.987Z,30.60
2022-08-23T14:56:59.685Z,30.60
2022-08-23T14:59:26.500Z,30.40
2022-08-23T15:01:54.476Z,30.40
2022-08-23T15:04:23.483Z,30.60
2022-08-23T15:07:16.104Z,30.60
2022-08-23T15:09:38.405Z,30.20
2022-08-23T15:14:52.710Z,30.50
2022-08-23T15:17:19.451Z,30.40
2022-08-23T15:19:46.272Z,30.40
2022-08-23T15:22:21.399Z,30.70
2022-08-23T15:24:48.961Z,30.80
2022-08-23T15:27:16.571Z,30.60
2022-08-23T15:29:43.309Z,30.80
2022-08-23T15:32:10.207Z,30.60
2022-08-23T15:34:40.163Z,30.80
2022-08-23T15:37:13.605Z,31.00
2022-08-23T15:39:41.935Z,30.80
2022-08-23T15:42:08.697Z,30.90
2022-08-23T15:44:35.385Z,31.00
2022-08-23T15:47:04.743Z,30.90
2022-08-23T15:49:36.231Z,30.90
2022-08-23T15:52:04.523Z,30.60
2022-08-23T15:54:32.253Z,30.50
2022-08-23T15:56:59.302Z,30.60
2022-08-23T15:59:26.352Z,30.50
2022-08-23T16:01:54.080Z,30.40
2022-08-23T16:04:20.919Z,30.60
2022-08-23T16:06:47.817Z,30.80
2022-08-23T16:09:22.902Z,30.60
2022-08-23T16:11:50.382Z,30.60
2022-08-23T16:14:18.455Z,30.80
2022-08-23T16:16:48.499Z,31.00
2022-08-23T16:19:16.646Z,30.90
2022-08-23T16:21:44.053Z,30.80
2022-08-23T16:24:10.742Z,31.00
2022-08-23T16:26:43.979Z,31.10
2022-08-23T16:29:14.428Z,31.30
2022-08-23T16:31:41.681Z,31.20
2022-08-23T16:34:14.797Z,31.30
2022-08-23T16:36:44.337Z,31.50
2022-08-23T16:39:12.546Z,31.60
2022-08-23T16:41:39.264Z,31.40
2022-08-23T16:44:06.221Z,31.30
2022-08-23T16:46:33.178Z,31.20
2022-08-23T16:49:00.010Z,31.20
2022-08-23T16:51:26.850Z,31.20
2022-08-23T16:54:01.824Z,31.20
2022-08-23T16:56:31.568Z,31.10
2022-08-23T16:58:58.836Z,31.00
2022-08-23T17:01:25.940Z,30.80
2022-08-23T17:03:52.913Z,30.70
2022-08-23T17:06:19.969Z,30.60
2022-08-23T17:08:47.019Z,30.50
2022-08-23T17:11:15.636Z,30.30
2022-08-23T17:13:42.421Z,30.30
2022-08-23T17:16:10.665Z,30.10
2022-08-23T17:18:38.384Z,30.00
2022-08-23T17:21:05.580Z,30.00
2022-08-23T17:23:32.287Z,29.90
2022-08-23T17:25:59.846Z,29.90
2022-08-23T17:28:27.628Z,30.00
2022-08-23T17:30:58.669Z,30.00
2022-08-23T17:33:25.505Z,29.90
2022-08-23T17:35:52.281Z,30.00
2022-08-23T17:38:20.232Z,30.10
2022-08-23T17:40:47.509Z,30.00
2022-08-23T17:43:14.234Z,29.90
2022-08-23T17:45:51.874Z,29.90
2022-08-23T17:48:21.785Z,30.00
2022-08-23T17:50:48.866Z,29.90
2022-08-23T17:53:17.599Z,29.80
2022-08-23T17:55:44.637Z,29.80
2022-08-23T17:58:11.554Z,29.70
2022-08-23T18:00:39.542Z,29.60
2022-08-23T18:03:06.995Z,29.60
2022-08-23T18:05:35.189Z,29.40
2022-08-23T18:08:02.091Z,29.10
2022-08-23T18:10:29.991Z,28.90
2022-08-23T18:12:58.486Z,28.80
2022-08-23T18:15:26.648Z,28.60
2022-08-23T18:17:58.082Z,28.40
2022-08-23T18:20:26.598Z,28.10
2022-08-23T18:22:54.940Z,27.90
2022-08-23T18:25:21.890Z,27.80
2022-08-23T18:28:08.207Z,27.60
2022-08-23T18:30:35.876Z,27.40
2022-08-23T18:33:03.327Z,27.30
2022-08-23T18:35:32.408Z,27.10
2022-08-23T18:37:59.766Z,27.00
2022-08-23T18:40:28.229Z,26.90
2022-08-23T18:42:55.520Z,26.80
2022-08-23T18:45:22.489Z,26.80
2022-08-23T18:47:49.444Z,26.60
2022-08-23T18:50:17.540Z,26.60
2022-08-23T18:52:44.348Z,26.70
2022-08-23T18:55:11.106Z,26.80
2022-08-23T18:57:38.987Z,26.80
2022-08-23T19:00:09.539Z,26.70
2022-08-23T19:02:37.324Z,26.70
2022-08-23T19:05:04.913Z,26.60
2022-08-23T19:07:32.458Z,26.50
2022-08-23T19:09:59.483Z,26.50
2022-08-23T19:12:26.366Z,26.50
2022-08-23T19:14:53.410Z,26.40
2022-08-23T19:17:21.033Z,26.30
2022-08-23T19:19:48.012Z,26.20
2022-08-23T19:22:15.317Z,26.10
2022-08-23T19:24:42.517Z,26.20
2022-08-23T19:27:09.537Z,26.30
2022-08-23T19:29:36.308Z,26.40
2022-08-23T19:32:03.997Z,26.30
2022-08-23T19:34:31.938Z,26.20
2022-08-23T19:37:01.399Z,26.10
2022-08-23T19:39:29.907Z,25.90
2022-08-23T19:41:57.487Z,25.80
2022-08-23T19:44:24.585Z,25.70
2022-08-23T19:46:51.658Z,25.90
2022-08-23T19:49:18.685Z,25.90
2022-08-23T19:51:45.709Z,25.70
2022-08-23T19:54:13.493Z,25.70
2022-08-23T19:56:44.753Z,25.70
2022-08-23T19:59:18.159Z,25.70
2022-08-23T20:01:45.258Z,25.70
2022-08-23T20:04:12.827Z,25.60
2022-08-23T20:06:40.115Z,25.50
2022-08-23T20:09:07.672Z,25.50
2022-08-23T20:11:35.470Z,25.40
2022-08-23T20:14:04.011Z,25.10
2022-08-23T20:16:32.712Z,25.00
2022-08-23T20:19:00.257Z,24.90
2022-08-23T20:21:27.093Z,24.70
2022-08-23T20:24:06.332Z,24.90
2022-08-23T20:26:40.814Z,25.00
2022-08-23T20:29:10.527Z,25.10
2022-08-23T20:31:40.262Z,25.10
2022-08-23T20:34:09.270Z,25.10
2022-08-23T20:36:36.408Z,25.00
2022-08-23T20:39:04.488Z,25.00
2022-08-23T20:41:35.697Z,24.90
2022-08-23T20:44:03.076Z,24.70
2022-08-23T20:46:31.404Z,24.80
2022-08-23T20:48:58.361Z,24.70
2022-08-23T20:51:27.379Z,24.60
2022-08-23T20:53:54.445Z,24.40
2022-08-23T20:56:23.762Z,24.50
2022-08-23T20:58:52.006Z,24.70
2022-08-23T21:01:19.160Z,24.50
2022-08-23T21:03:46.657Z,24.70
2022-08-23T21:06:23.155Z,24.70
2022-08-23T21:08:55.051Z,24.70
2022-08-23T21:11:26.938Z,24.60
2022-08-23T21:13:55.501Z,24.40
2022-08-23T21:16:22.538Z,24.30
2022-08-23T21:18:49.924Z,24.20
2022-08-23T21:21:21.429Z,24.10
2022-08-23T21:23:49.983Z,24.20
2022-08-23T21:26:17.629Z,24.30
2022-08-23T21:28:44.830Z,24.30
2022-08-23T21:31:15.053Z,24.00
2022-08-23T21:33:42.549Z,23.80
2022-08-23T21:36:10.729Z,23.80
2022-08-23T21:38:38.658Z,23.90
2022-08-23T21:41:09.066Z,23.70
2022-08-23T21:43:39.910Z,23.70
2022-08-23T21:46:07.349Z,23.50
2022-08-23T21:48:34.692Z,23.40
2022-08-23T21:51:01.581Z,23.40
2022-08-23T21:53:28.643Z,23.40
2022-08-23T21:55:55.616Z,23.40
2022-08-23T21:58:22.817Z,23.40
2022-08-23T22:00:49.612Z,23.50
2022-08-23T22:03:16.747Z,23.50
2022-08-23T22:05:45.962Z,23.50
2022-08-23T22:08:14.346Z,23.50
2022-08-23T22:10:44.786Z,23.40
2022-08-23T22:13:24.151Z,23.30
2022-08-23T22:15:51.201Z,23.30
2022-08-23T22:18:18.263Z,23.40
2022-08-23T22:20:45.272Z,23.50
2022-08-23T22:23:12.326Z,23.40
2022-08-23T22:25:39.403Z,23.40
2022-08-23T22:28:06.429Z,23.30
2022-08-23T22:30:33.096Z,23.20
2022-08-23T22:33:00.096Z,23.20
2022-08-23T22:35:27.220Z,23.20
2022-08-23T22:38:12.753Z,23.00
2022-08-23T22:40:46.435Z,23.10
2022-08-23T22:43:13.308Z,23.20
2022-08-23T22:45:56.006Z,23.10
2022-08-23T22:48:23.864Z,23.00
2022-08-23T22:50:50.903Z,22.90
2022-08-23T22:53:18.440Z,22.70
2022-08-23T22:55:51.918Z,22.40
2022-08-23T22:58:18.907Z,22.20
2022-08-23T23:00:45.904Z,21.90
2022-08-23T23:03:13.857Z,22.00
2022-08-23T23:05:41.741Z,22.20
2022-08-23T23:08:27.162Z,22.10
2022-08-23T23:10:59.806Z,22.20
2022-08-23T23:13:29.381Z,22.10
2022-08-23T23:15:58.809Z,22.00
2022-08-23T23:18:26.156Z,21.80
2022-08-23T23:20:57.728Z,21.90
2022-08-23T23:23:25.371Z,21.70
2022-08-23T23:25:52.338Z,21.60
2022-08-23T23:28:20.429Z,21.60
2022-08-23T23:30:52.892Z,21.70
2022-08-23T23:33:20.952Z,21.70
2022-08-23T23:35:48.578Z,21.60
2022-08-23T23:38:16.168Z,21.50
2022-08-23T23:40:43.878Z,21.30
2022-08-23T23:43:12.924Z,21.30
2022-08-23T23:45:41.630Z,21.20
2022-08-23T23:48:09.816Z,21.20
2022-08-23T23:50:41.577Z,21.30
2022-08-23T23:53:11.837Z,21.20
2022-08-23T23:55:38.808Z,21.20
2022-08-23T23:58:05.947Z,21.10
